sensor_id;sensor_type;location;lat;lon;timestamp;pressure;altitude;pressure_sealevel;temperature;humidity
13476;BME280;6810;63.824;20.288;2023-04-06T00:00:38;103112.84;;;-0.06;50.43
13476;BME280;6810;63.824;20.288;2023-04-06T00:03:05;103106.66;;;-0.11;50.80
13476;BME280;6810;63.824;20.288;2023-04-06T00:05:32;103069.38;;;-0.34;51.01
13476;BME280;6810;63.824;20.288;2023-04-06T00:07:59;103090.59;;;-0.25;50.97
13476;BME280;6810;63.824;20.288;2023-04-06T00:10:27;103083.47;;;-0.30;51.01
13476;BME280;6810;63.824;20.288;2023-04-06T00:12:54;103094.91;;;-0.27;50.51
13476;BME280;6810;63.824;20.288;2023-04-06T00:15:23;103098.41;;;-0.26;51.01
13476;BME280;6810;63.824;20.288;2023-04-06T00:17:50;103096.63;;;-0.27;50.31
13476;BME280;6810;63.824;20.288;2023-04-06T00:20:17;103087.84;;;-0.31;51.42
13476;BME280;6810;63.824;20.288;2023-04-06T00:22:44;103098.16;;;-0.35;50.48
13476;BME280;6810;63.824;20.288;2023-04-06T00:25:11;103097.25;;;-0.39;50.76
13476;BME280;6810;63.824;20.288;2023-04-06T00:27:38;103086.66;;;-0.43;51.57
13476;BME280;6810;63.824;20.288;2023-04-06T00:30:06;103082.19;;;-0.46;51.15
13476;BME280;6810;63.824;20.288;2023-04-06T00:32:34;103083.84;;;-0.51;51.44
13476;BME280;6810;63.824;20.288;2023-04-06T00:35:03;103088.16;;;-0.53;50.61
13476;BME280;6810;63.824;20.288;2023-04-06T00:37:30;103068.53;;;-0.68;51.68
13476;BME280;6810;63.824;20.288;2023-04-06T00:39:58;103087.13;;;-0.58;50.83
13476;BME280;6810;63.824;20.288;2023-04-06T00:42:25;103098.44;;;-0.60;51.69
13476;BME280;6810;63.824;20.288;2023-04-06T00:44:58;103078.03;;;-0.72;51.71
13476;BME280;6810;63.824;20.288;2023-04-06T00:47:26;103064.69;;;-0.82;51.28
13476;BME280;6810;63.824;20.288;2023-04-06T00:49:54;103092.03;;;-0.71;51.22
13476;BME280;6810;63.824;20.288;2023-04-06T00:52:22;103091.94;;;-0.74;51.14
13476;BME280;6810;63.824;20.288;2023-04-06T00:54:49;103089.25;;;-0.77;51.66
13476;BME280;6810;63.824;20.288;2023-04-06T00:57:19;103090.06;;;-0.80;51.54
13476;BME280;6810;63.824;20.288;2023-04-06T00:59:52;103085.59;;;-0.84;51.14
13476;BME280;6810;63.824;20.288;2023-04-06T01:02:20;103094.25;;;-0.86;51.79
13476;BME280;6810;63.824;20.288;2023-04-06T01:04:52;103084.28;;;-0.99;51.57
13476;BME280;6810;63.824;20.288;2023-04-06T01:07:31;103095.00;;;-0.92;51.30
13476;BME280;6810;63.824;20.288;2023-04-06T01:10:06;103083.44;;;-1.00;52.36
13476;BME280;6810;63.824;20.288;2023-04-06T01:12:35;103093.03;;;-0.99;51.62
13476;BME280;6810;63.824;20.288;2023-04-06T01:15:09;103095.63;;;-1.00;51.52
13476;BME280;6810;63.824;20.288;2023-04-06T01:17:41;103084.94;;;-1.08;52.37
13476;BME280;6810;63.824;20.288;2023-04-06T01:20:12;103074.03;;;-1.24;52.50
13476;BME280;6810;63.824;20.288;2023-04-06T01:22:40;103089.13;;;-1.14;52.40
13476;BME280;6810;63.824;20.288;2023-04-06T01:25:07;103068.69;;;-1.29;52.64
13476;BME280;6810;63.824;20.288;2023-04-06T01:28:04;103099.59;;;-1.14;52.24
13476;BME280;6810;63.824;20.288;2023-04-06T01:30:49;103036.63;;;-1.53;51.87
13476;BME280;6810;63.824;20.288;2023-04-06T01:33:40;103094.97;;;-1.24;52.08
13476;BME280;6810;63.824;20.288;2023-04-06T01:36:11;103031.91;;;-1.64;52.33
13476;BME280;6810;63.824;20.288;2023-04-06T01:38:39;103066.41;;;-1.46;52.41
13476;BME280;6810;63.824;20.288;2023-04-06T01:41:06;103100.03;;;-1.30;52.77
13476;BME280;6810;63.824;20.288;2023-04-06T01:43:44;103053.84;;;-1.59;52.51
13476;BME280;6810;63.824;20.288;2023-04-06T01:46:12;103097.16;;;-1.39;53.07
13476;BME280;6810;63.824;20.288;2023-04-06T01:48:42;103093.63;;;-1.40;52.73
13476;BME280;6810;63.824;20.288;2023-04-06T01:51:30;103085.63;;;-1.46;52.49
13476;BME280;6810;63.824;20.288;2023-04-06T01:54:00;103027.97;;;-1.80;52.32
13476;BME280;6810;63.824;20.288;2023-04-06T01:56:39;103088.16;;;-1.49;52.67
13476;BME280;6810;63.824;20.288;2023-04-06T01:59:24;103087.22;;;-1.51;51.97
13476;BME280;6810;63.824;20.288;2023-04-06T02:01:52;103087.13;;;-1.54;52.88
13476;BME280;6810;63.824;20.288;2023-04-06T02:04:20;103009.97;;;-2.01;52.52
13476;BME280;6810;63.824;20.288;2023-04-06T02:06:53;103091.41;;;-1.57;52.77
13476;BME280;6810;63.824;20.288;2023-04-06T02:09:23;103070.22;;;-1.65;52.64
13476;BME280;6810;63.824;20.288;2023-04-06T02:11:50;103069.31;;;-1.67;52.70
13476;BME280;6810;63.824;20.288;2023-04-06T02:14:17;103076.31;;;-1.66;52.97
13476;BME280;6810;63.824;20.288;2023-04-06T02:16:50;103025.81;;;-1.95;53.17
13476;BME280;6810;63.824;20.288;2023-04-06T02:19:17;103062.97;;;-1.75;52.18
13476;BME280;6810;63.824;20.288;2023-04-06T02:21:44;103030.16;;;-1.95;52.50
13476;BME280;6810;63.824;20.288;2023-04-06T02:24:11;103062.94;;;-1.77;53.43
13476;BME280;6810;63.824;20.288;2023-04-06T02:26:38;103034.53;;;-1.94;52.58
13476;BME280;6810;63.824;20.288;2023-04-06T02:29:05;103060.19;;;-1.81;53.27
13476;BME280;6810;63.824;20.288;2023-04-06T02:31:33;103058.38;;;-1.84;52.44
13476;BME280;6810;63.824;20.288;2023-04-06T02:34:01;103056.53;;;-1.86;53.62
13476;BME280;6810;63.824;20.288;2023-04-06T02:36:30;103047.72;;;-1.91;53.32
13476;BME280;6810;63.824;20.288;2023-04-06T02:38:57;103063.38;;;-1.91;52.60
13476;BME280;6810;63.824;20.288;2023-04-06T02:41:24;103061.53;;;-1.94;54.04
13476;BME280;6810;63.824;20.288;2023-04-06T02:43:52;103060.66;;;-1.94;53.29
13476;BME280;6810;63.824;20.288;2023-04-06T02:46:30;103040.06;;;-2.13;52.66
13476;BME280;6810;63.824;20.288;2023-04-06T02:48:57;103067.50;;;-1.99;53.15
13476;BME280;6810;63.824;20.288;2023-04-06T02:51:30;103064.81;;;-2.01;53.59
13476;BME280;6810;63.824;20.288;2023-04-06T02:54:07;103053.44;;;-2.03;53.23
13476;BME280;6810;63.824;20.288;2023-04-06T02:56:35;103049.06;;;-2.04;54.09
13476;BME280;6810;63.824;20.288;2023-04-06T02:59:02;103052.41;;;-2.08;54.11
13476;BME280;6810;63.824;20.288;2023-04-06T03:01:31;103044.47;;;-2.11;54.26
13476;BME280;6810;63.824;20.288;2023-04-06T03:04:03;103068.91;;;-2.09;54.28
13476;BME280;6810;63.824;20.288;2023-04-06T03:06:30;103066.94;;;-2.17;54.30
13476;BME280;6810;63.824;20.288;2023-04-06T03:09:06;103070.53;;;-2.12;53.67
13476;BME280;6810;63.824;20.288;2023-04-06T03:11:34;103080.13;;;-2.13;54.19
13476;BME280;6810;63.824;20.288;2023-04-06T03:14:01;103083.56;;;-2.14;52.93
13476;BME280;6810;63.824;20.288;2023-04-06T03:16:28;103088.72;;;-2.15;53.46
13476;BME280;6810;63.824;20.288;2023-04-06T03:18:57;103080.81;;;-2.18;53.13
13476;BME280;6810;63.824;20.288;2023-04-06T03:21:24;103029.09;;;-2.56;53.47
13476;BME280;6810;63.824;20.288;2023-04-06T03:23:53;103091.16;;;-2.21;53.25
13476;BME280;6810;63.824;20.288;2023-04-06T03:26:21;103092.94;;;-2.20;53.86
13476;BME280;6810;63.824;20.288;2023-04-06T03:28:51;103068.41;;;-2.25;53.21
13476;BME280;6810;63.824;20.288;2023-04-06T03:31:21;103089.41;;;-2.22;53.71
13476;BME280;6810;63.824;20.288;2023-04-06T03:34:11;103097.03;;;-2.28;54.82
13476;BME280;6810;63.824;20.288;2023-04-06T03:36:39;103047.63;;;-2.49;54.36
13476;BME280;6810;63.824;20.288;2023-04-06T03:39:07;103035.03;;;-2.62;54.51
13476;BME280;6810;63.824;20.288;2023-04-06T03:41:39;103067.94;;;-2.40;54.94
13476;BME280;6810;63.824;20.288;2023-04-06T03:44:26;103066.94;;;-2.44;54.20
13476;BME280;6810;63.824;20.288;2023-04-06T03:46:53;103091.72;;;-2.31;53.99
13476;BME280;6810;63.824;20.288;2023-04-06T03:49:21;103066.03;;;-2.44;54.31
13476;BME280;6810;63.824;20.288;2023-04-06T03:51:50;103095.03;;;-2.35;54.36
13476;BME280;6810;63.824;20.288;2023-04-06T03:54:17;103087.03;;;-2.41;53.86
13476;BME280;6810;63.824;20.288;2023-04-06T03:56:45;103092.28;;;-2.40;54.69
13476;BME280;6810;63.824;20.288;2023-04-06T03:59:11;103000.94;;;-2.93;54.34
13476;BME280;6810;63.824;20.288;2023-04-06T04:01:39;103055.72;;;-2.68;53.80
13476;BME280;6810;63.824;20.288;2023-04-06T04:04:06;103091.38;;;-2.42;54.30
13476;BME280;6810;63.824;20.288;2023-04-06T04:06:33;103102.63;;;-2.43;54.96
13476;BME280;6810;63.824;20.288;2023-04-06T04:09:00;103085.81;;;-2.52;54.95
13476;BME280;6810;63.824;20.288;2023-04-06T04:11:27;103074.22;;;-2.60;54.87
13476;BME280;6810;63.824;20.288;2023-04-06T04:13:57;103069.78;;;-2.63;54.00
13476;BME280;6810;63.824;20.288;2023-04-06T04:16:24;103067.97;;;-2.65;54.66
13476;BME280;6810;63.824;20.288;2023-04-06T04:18:51;103051.09;;;-2.75;55.15
13476;BME280;6810;63.824;20.288;2023-04-06T04:21:18;103097.06;;;-2.53;55.01
13476;BME280;6810;63.824;20.288;2023-04-06T04:23:45;103100.63;;;-2.51;54.47
13476;BME280;6810;63.824;20.288;2023-04-06T04:26:12;103081.00;;;-2.65;55.16
13476;BME280;6810;63.824;20.288;2023-04-06T04:28:40;103086.28;;;-2.64;55.36
13476;BME280;6810;63.824;20.288;2023-04-06T04:31:07;103098.81;;;-2.54;54.99
13476;BME280;6810;63.824;20.288;2023-04-06T04:33:34;103090.66;;;-2.63;55.62
13476;BME280;6810;63.824;20.288;2023-04-06T04:36:07;103102.28;;;-2.53;55.08
13476;BME280;6810;63.824;20.288;2023-04-06T04:38:39;103100.44;;;-2.57;54.42
13476;BME280;6810;63.824;20.288;2023-04-06T04:41:06;103107.47;;;-2.55;55.47
13476;BME280;6810;63.824;20.288;2023-04-06T04:43:36;103105.75;;;-2.54;54.99
13476;BME280;6810;63.824;20.288;2023-04-06T04:46:04;103095.06;;;-2.62;54.68
13476;BME280;6810;63.824;20.288;2023-04-06T04:48:36;103109.25;;;-2.54;55.23
13476;BME280;6810;63.824;20.288;2023-04-06T04:51:06;103099.47;;;-2.59;54.76
13476;BME280;6810;63.824;20.288;2023-04-06T04:53:53;103114.53;;;-2.52;55.35
13476;BME280;6810;63.824;20.288;2023-04-06T04:56:25;103105.00;;;-2.50;54.86
13476;BME280;6810;63.824;20.288;2023-04-06T04:58:57;103083.75;;;-2.61;56.45
13476;BME280;6810;63.824;20.288;2023-04-06T05:01:27;103098.72;;;-2.57;55.97
13476;BME280;6810;63.824;20.288;2023-04-06T05:03:54;103107.81;;;-2.44;55.04
13476;BME280;6810;63.824;20.288;2023-04-06T05:06:21;103116.63;;;-2.41;55.40
13476;BME280;6810;63.824;20.288;2023-04-06T05:08:49;103084.97;;;-2.51;55.32
13476;BME280;6810;63.824;20.288;2023-04-06T05:11:16;103117.69;;;-2.36;55.31
13476;BME280;6810;63.824;20.288;2023-04-06T05:13:49;103117.78;;;-2.33;56.21
13476;BME280;6810;63.824;20.288;2023-04-06T05:16:20;103118.78;;;-2.28;56.54
13476;BME280;6810;63.824;20.288;2023-04-06T05:18:50;103119.69;;;-2.27;55.41
13476;BME280;6810;63.824;20.288;2023-04-06T05:21:18;103084.41;;;-2.41;56.27
13476;BME280;6810;63.824;20.288;2023-04-06T05:24:06;103076.56;;;-2.41;56.13
13476;BME280;6810;63.824;20.288;2023-04-06T05:26:34;103097.50;;;-2.13;55.44
13476;BME280;6810;63.824;20.288;2023-04-06T05:29:07;103115.03;;;-2.09;56.57
13476;BME280;6810;63.824;20.288;2023-04-06T05:31:36;103022.22;;;-2.54;56.41
13476;BME280;6810;63.824;20.288;2023-04-06T05:34:03;103076.94;;;-2.03;56.88
13476;BME280;6810;63.824;20.288;2023-04-06T05:36:34;103096.31;;;-1.96;56.12
13476;BME280;6810;63.824;20.288;2023-04-06T05:39:06;103091.09;;;-1.96;55.56
13476;BME280;6810;63.824;20.288;2023-04-06T05:41:40;103102.66;;;-1.88;56.83
13476;BME280;6810;63.824;20.288;2023-04-06T05:44:09;103101.97;;;-1.83;55.81
13476;BME280;6810;63.824;20.288;2023-04-06T05:46:38;103078.47;;;-1.81;55.81
13476;BME280;6810;63.824;20.288;2023-04-06T05:49:07;103088.25;;;-1.74;56.30
13476;BME280;6810;63.824;20.288;2023-04-06T05:51:35;103097.09;;;-1.70;56.65
13476;BME280;6810;63.824;20.288;2023-04-06T05:54:02;103097.28;;;-1.64;56.24
13476;BME280;6810;63.824;20.288;2023-04-06T05:56:30;103102.69;;;-1.58;56.63
13476;BME280;6810;63.824;20.288;2023-04-06T05:59:00;103092.34;;;-1.54;55.99
13476;BME280;6810;63.824;20.288;2023-04-06T06:01:28;103097.72;;;-1.49;57.16
13476;BME280;6810;63.824;20.288;2023-04-06T06:03:56;103091.75;;;-1.45;56.15
13476;BME280;6810;63.824;20.288;2023-04-06T06:06:27;103088.41;;;-1.40;56.85
13476;BME280;6810;63.824;20.288;2023-04-06T06:09:07;103087.69;;;-1.34;55.97
13476;BME280;6810;63.824;20.288;2023-04-06T06:11:40;103050.69;;;-1.48;56.71
13476;BME280;6810;63.824;20.288;2023-04-06T06:14:09;103077.59;;;-1.22;57.05
13476;BME280;6810;63.824;20.288;2023-04-06T06:16:39;103083.81;;;-1.17;56.98
13476;BME280;6810;63.824;20.288;2023-04-06T06:19:07;103060.00;;;-1.26;57.13
13476;BME280;6810;63.824;20.288;2023-04-06T06:21:35;103076.97;;;-1.12;57.16
13476;BME280;6810;63.824;20.288;2023-04-06T06:24:05;103061.19;;;-1.15;56.42
13476;BME280;6810;63.824;20.288;2023-04-06T06:26:32;103085.28;;;-0.96;57.22
13476;BME280;6810;63.824;20.288;2023-04-06T06:28:59;103057.84;;;-1.10;56.03
13476;BME280;6810;63.824;20.288;2023-04-06T06:31:27;102975.63;;;-1.52;56.20
13476;BME280;6810;63.824;20.288;2023-04-06T06:33:54;103094.38;;;-0.82;56.25
13476;BME280;6810;63.824;20.288;2023-04-06T06:36:21;103100.63;;;-0.77;56.14
13476;BME280;6810;63.824;20.288;2023-04-06T06:38:49;103087.41;;;-0.81;56.74
13476;BME280;6810;63.824;20.288;2023-04-06T06:41:18;103094.53;;;-0.76;56.39
13476;BME280;6810;63.824;20.288;2023-04-06T06:43:45;103111.50;;;-0.62;56.31
13476;BME280;6810;63.824;20.288;2023-04-06T06:46:12;103037.19;;;-0.99;56.52
13476;BME280;6810;63.824;20.288;2023-04-06T06:48:40;103117.81;;;-0.54;56.96
13476;BME280;6810;63.824;20.288;2023-04-06T06:51:07;103120.59;;;-0.48;56.96
13476;BME280;6810;63.824;20.288;2023-04-06T06:53:36;103117.19;;;-0.44;56.34
13476;BME280;6810;63.824;20.288;2023-04-06T06:56:03;103117.28;;;-0.39;56.91
13476;BME280;6810;63.824;20.288;2023-04-06T06:58:30;103121.84;;;-0.32;56.63
13476;BME280;6810;63.824;20.288;2023-04-06T07:00:59;103127.22;;;-0.28;56.62
13476;BME280;6810;63.824;20.288;2023-04-06T07:03:29;103123.69;;;-0.28;56.84
13476;BME280;6810;63.824;20.288;2023-04-06T07:05:56;103130.91;;;-0.18;56.41
13476;BME280;6810;63.824;20.288;2023-04-06T07:08:24;103123.16;;;-0.14;56.88
13476;BME280;6810;63.824;20.288;2023-04-06T07:10:52;103121.53;;;-0.09;56.65
13476;BME280;6810;63.824;20.288;2023-04-06T07:13:20;103095.97;;;-0.19;56.32
13476;BME280;6810;63.824;20.288;2023-04-06T07:15:54;103042.97;;;-0.43;56.72
13476;BME280;6810;63.824;20.288;2023-04-06T07:18:22;103074.94;;;-0.22;56.66
13476;BME280;6810;63.824;20.288;2023-04-06T07:20:49;103119.34;;;0.10;57.14
13476;BME280;6810;63.824;20.288;2023-04-06T07:23:16;103120.34;;;0.15;56.57
13476;BME280;6810;63.824;20.288;2023-04-06T07:25:44;103123.97;;;0.20;56.59
13476;BME280;6810;63.824;20.288;2023-04-06T07:28:11;103125.91;;;0.30;56.87
13476;BME280;6810;63.824;20.288;2023-04-06T07:30:39;103116.44;;;0.35;56.86
13476;BME280;6810;63.824;20.288;2023-04-06T07:33:08;103111.22;;;0.36;56.51
13476;BME280;6810;63.824;20.288;2023-04-06T07:35:36;103116.66;;;0.45;57.07
13476;BME280;6810;63.824;20.288;2023-04-06T07:38:05;103119.38;;;0.50;56.63
13476;BME280;6810;63.824;20.288;2023-04-06T07:40:33;103116.88;;;0.56;56.97
13476;BME280;6810;63.824;20.288;2023-04-06T07:43:00;103102.88;;;0.55;56.64
13476;BME280;6810;63.824;20.288;2023-04-06T07:45:29;103107.50;;;0.67;56.77
13476;BME280;6810;63.824;20.288;2023-04-06T07:47:56;103071.22;;;0.48;56.83
13476;BME280;6810;63.824;20.288;2023-04-06T07:50:25;103121.72;;;0.78;56.75
13476;BME280;6810;63.824;20.288;2023-04-06T07:52:53;103113.94;;;0.82;56.70
13476;BME280;6810;63.824;20.288;2023-04-06T07:55:20;103117.50;;;0.87;56.60
13476;BME280;6810;63.824;20.288;2023-04-06T07:57:47;103110.59;;;0.91;56.80
13476;BME280;6810;63.824;20.288;2023-04-06T08:00:14;103048.72;;;0.59;56.67
13476;BME280;6810;63.824;20.288;2023-04-06T08:02:41;103118.69;;;1.01;56.70
13476;BME280;6810;63.824;20.288;2023-04-06T08:05:09;103124.91;;;1.06;56.51
13476;BME280;6810;63.824;20.288;2023-04-06T08:07:36;103124.97;;;1.09;56.69
13476;BME280;6810;63.824;20.288;2023-04-06T08:10:03;103091.47;;;0.96;56.53
13476;BME280;6810;63.824;20.288;2023-04-06T08:12:32;103085.28;;;0.94;56.86
13476;BME280;6810;63.824;20.288;2023-04-06T08:14:59;103127.88;;;1.24;56.73
13476;BME280;6810;63.824;20.288;2023-04-06T08:17:27;103124.47;;;1.28;56.47
13476;BME280;6810;63.824;20.288;2023-04-06T08:19:57;103127.19;;;1.33;56.63
13476;BME280;6810;63.824;20.288;2023-04-06T08:22:24;103125.50;;;1.38;56.50
13476;BME280;6810;63.824;20.288;2023-04-06T08:24:51;103087.53;;;1.21;56.99
13476;BME280;6810;63.824;20.288;2023-04-06T08:27:18;103119.53;;;1.46;56.71
13476;BME280;6810;63.824;20.288;2023-04-06T08:29:45;103120.44;;;1.50;56.71
13476;BME280;6810;63.824;20.288;2023-04-06T08:32:12;103063.84;;;1.19;56.46
13476;BME280;6810;63.824;20.288;2023-04-06T08:34:39;103125.84;;;1.59;56.73
13476;BME280;6810;63.824;20.288;2023-04-06T08:37:06;103126.81;;;1.64;56.62
13476;BME280;6810;63.824;20.288;2023-04-06T08:39:33;103111.09;;;1.67;56.41
13476;BME280;6810;63.824;20.288;2023-04-06T08:42:01;103073.97;;;1.46;56.25
13476;BME280;6810;63.824;20.288;2023-04-06T08:44:31;103110.38;;;1.75;56.43
13476;BME280;6810;63.824;20.288;2023-04-06T08:47:19;103103.28;;;1.71;56.31
13476;BME280;6810;63.824;20.288;2023-04-06T08:50:09;103020.22;;;1.26;56.83
13476;BME280;6810;63.824;20.288;2023-04-06T08:52:56;103127.25;;;1.91;56.86
13476;BME280;6810;63.824;20.288;2023-04-06T08:55:43;103100.81;;;1.80;56.56
13476;BME280;6810;63.824;20.288;2023-04-06T08:58:35;103101.78;;;1.86;56.14
13476;BME280;6810;63.824;20.288;2023-04-06T09:01:27;103118.69;;;2.03;56.13
13476;BME280;6810;63.824;20.288;2023-04-06T09:04:16;103067.47;;;1.78;56.10
13476;BME280;6810;63.824;20.288;2023-04-06T09:07:03;103085.19;;;1.91;56.07
13476;BME280;6810;63.824;20.288;2023-04-06T09:09:51;103103.97;;;2.14;55.96
13476;BME280;6810;63.824;20.288;2023-04-06T09:12:38;103102.25;;;2.19;56.04
13476;BME280;6810;63.824;20.288;2023-04-06T09:15:25;103094.31;;;2.14;56.11
13476;BME280;6810;63.824;20.288;2023-04-06T09:18:12;103110.38;;;2.32;56.07
13476;BME280;6810;63.824;20.288;2023-04-06T09:21:04;103087.50;;;2.28;55.98
13476;BME280;6810;63.824;20.288;2023-04-06T09:24:02;103104.38;;;2.44;56.76
13476;BME280;6810;63.824;20.288;2023-04-06T09:26:49;103093.00;;;2.48;56.84
13476;BME280;6810;63.824;20.288;2023-04-06T09:29:36;103063.94;;;2.39;56.30
13476;BME280;6810;63.824;20.288;2023-04-06T09:32:23;103066.63;;;2.43;55.96
13476;BME280;6810;63.824;20.288;2023-04-06T09:35:10;103095.00;;;2.65;55.93
13476;BME280;6810;63.824;20.288;2023-04-06T09:37:57;103038.56;;;2.42;56.52
13476;BME280;6810;63.824;20.288;2023-04-06T09:40:51;103099.53;;;2.78;55.73
13476;BME280;6810;63.824;20.288;2023-04-06T09:43:37;103091.72;;;2.86;56.60
13476;BME280;6810;63.824;20.288;2023-04-06T09:46:25;103095.31;;;2.92;55.69
13476;BME280;6810;63.824;20.288;2023-04-06T09:49:30;103098.03;;;3.00;55.78
13476;BME280;6810;63.824;20.288;2023-04-06T09:52:21;103096.34;;;3.06;56.25
13476;BME280;6810;63.824;20.288;2023-04-06T09:55:11;103099.94;;;3.13;56.24
13476;BME280;6810;63.824;20.288;2023-04-06T09:58:06;103066.38;;;2.95;56.02
13476;BME280;6810;63.824;20.288;2023-04-06T10:01:15;103100.09;;;3.28;56.69
13476;BME280;6810;63.824;20.288;2023-04-06T10:07:20;103087.94;;;3.42;55.66
13476;BME280;6810;63.824;20.288;2023-04-06T10:10:26;102973.19;;;2.83;55.55
13476;BME280;6810;63.824;20.288;2023-04-06T10:13:14;103105.63;;;3.56;55.52
13476;BME280;6810;63.824;20.288;2023-04-06T10:16:02;103031.53;;;3.25;55.22
13476;BME280;6810;63.824;20.288;2023-04-06T10:18:53;103097.81;;;3.69;55.95
13476;BME280;6810;63.824;20.288;2023-04-06T10:21:43;103097.00;;;3.76;56.06
13476;BME280;6810;63.824;20.288;2023-04-06T10:24:31;103097.06;;;3.85;55.33
13476;BME280;6810;63.824;20.288;2023-04-06T10:27:27;103103.28;;;3.91;55.38
13476;BME280;6810;63.824;20.288;2023-04-06T10:30:15;103093.63;;;3.96;54.98
13476;BME280;6810;63.824;20.288;2023-04-06T10:33:15;103032.72;;;3.62;55.52
13476;BME280;6810;63.824;20.288;2023-04-06T10:36:21;103099.84;;;4.07;55.68
13476;BME280;6810;63.824;20.288;2023-04-06T10:39:08;103037.22;;;3.82;55.98
13476;BME280;6810;63.824;20.288;2023-04-06T10:42:06;103095.53;;;4.18;55.77
13476;BME280;6810;63.824;20.288;2023-04-06T10:44:53;103092.03;;;4.24;55.33
13476;BME280;6810;63.824;20.288;2023-04-06T10:47:40;103092.03;;;4.24;55.11
13476;BME280;6810;63.824;20.288;2023-04-06T10:50:29;103077.09;;;4.27;54.82
13476;BME280;6810;63.824;20.288;2023-04-06T10:53:26;103064.75;;;4.20;55.87
13476;BME280;6810;63.824;20.288;2023-04-06T10:56:18;103090.38;;;4.39;55.52
13476;BME280;6810;63.824;20.288;2023-04-06T10:59:07;103093.94;;;4.46;55.52
13476;BME280;6810;63.824;20.288;2023-04-06T11:01:54;103077.16;;;4.38;55.50
13476;BME280;6810;63.824;20.288;2023-04-06T11:04:41;103067.47;;;4.34;55.30
13476;BME280;6810;63.824;20.288;2023-04-06T11:07:28;103095.72;;;4.56;54.96
13476;BME280;6810;63.824;20.288;2023-04-06T11:10:22;103097.53;;;4.60;54.87
13476;BME280;6810;63.824;20.288;2023-04-06T11:13:09;103090.47;;;4.65;55.41
13476;BME280;6810;63.824;20.288;2023-04-06T11:15:56;103070.22;;;4.58;55.78
13476;BME280;6810;63.824;20.288;2023-04-06T11:18:50;103026.09;;;4.37;54.87
13476;BME280;6810;63.824;20.288;2023-04-06T11:21:44;103091.41;;;4.77;54.43
13476;BME280;6810;63.824;20.288;2023-04-06T11:24:31;103063.22;;;4.69;54.40
13476;BME280;6810;63.824;20.288;2023-04-06T11:27:21;103090.56;;;4.86;54.46
13476;BME280;6810;63.824;20.288;2023-04-06T11:30:09;103042.09;;;4.69;54.90
13476;BME280;6810;63.824;20.288;2023-04-06T11:33:00;102983.84;;;4.36;55.20
13476;BME280;6810;63.824;20.288;2023-04-06T11:35:48;103083.53;;;5.00;55.99
13476;BME280;6810;63.824;20.288;2023-04-06T11:38:38;103038.59;;;4.85;55.79
13476;BME280;6810;63.824;20.288;2023-04-06T11:41:26;103043.88;;;4.97;55.99
13476;BME280;6810;63.824;20.288;2023-04-06T11:44:12;103075.69;;;5.18;55.80
13476;BME280;6810;63.824;20.288;2023-04-06T11:47:05;103076.53;;;5.32;55.00
13476;BME280;6810;63.824;20.288;2023-04-06T11:49:52;103075.69;;;5.42;55.63
13476;BME280;6810;63.824;20.288;2023-04-06T11:52:40;103071.28;;;5.49;55.23
13476;BME280;6810;63.824;20.288;2023-04-06T11:55:27;103073.03;;;5.56;55.33
13476;BME280;6810;63.824;20.288;2023-04-06T11:58:14;103071.28;;;5.64;55.38
13476;BME280;6810;63.824;20.288;2023-04-06T12:01:04;103031.63;;;5.52;55.04
13476;BME280;6810;63.824;20.288;2023-04-06T12:03:52;103035.09;;;5.64;54.46
13476;BME280;6810;63.824;20.288;2023-04-06T12:06:39;103005.16;;;5.50;54.66
13476;BME280;6810;63.824;20.288;2023-04-06T12:09:26;103056.31;;;5.90;55.05
13476;BME280;6810;63.824;20.288;2023-04-06T12:12:13;103037.78;;;5.87;54.30
13476;BME280;6810;63.824;20.288;2023-04-06T12:15:00;102998.03;;;5.76;54.74
13476;BME280;6810;63.824;20.288;2023-04-06T12:17:47;103042.13;;;6.07;54.72
13476;BME280;6810;63.824;20.288;2023-04-06T12:20:34;102999.81;;;5.94;54.43
13476;BME280;6810;63.824;20.288;2023-04-06T12:23:21;103015.66;;;6.04;54.89
13476;BME280;6810;63.824;20.288;2023-04-06T12:26:08;103029.72;;;6.27;55.19
13476;BME280;6810;63.824;20.288;2023-04-06T12:28:55;103034.09;;;6.34;54.05
13476;BME280;6810;63.824;20.288;2023-04-06T12:31:42;103035.88;;;6.34;54.19
13476;BME280;6810;63.824;20.288;2023-04-06T12:34:29;103051.72;;;6.46;53.99
13476;BME280;6810;63.824;20.288;2023-04-06T12:37:17;103033.16;;;6.47;54.66
13476;BME280;6810;63.824;20.288;2023-04-06T12:40:04;102994.38;;;6.28;53.81
13476;BME280;6810;63.824;20.288;2023-04-06T12:42:52;103026.06;;;6.58;54.67
13476;BME280;6810;63.824;20.288;2023-04-06T12:45:39;102993.47;;;6.43;53.75
13476;BME280;6810;63.824;20.288;2023-04-06T12:48:26;103005.72;;;6.59;53.82
13476;BME280;6810;63.824;20.288;2023-04-06T12:51:13;103022.44;;;6.71;53.98
13476;BME280;6810;63.824;20.288;2023-04-06T12:54:00;102937.00;;;6.29;53.66
13476;BME280;6810;63.824;20.288;2023-04-06T12:56:47;102992.44;;;6.65;53.88
13476;BME280;6810;63.824;20.288;2023-04-06T12:59:34;102984.47;;;6.68;54.46
13476;BME280;6810;63.824;20.288;2023-04-06T13:02:23;103005.63;;;6.81;54.29
13476;BME280;6810;63.824;20.288;2023-04-06T13:05:11;103017.88;;;6.96;54.26
13476;BME280;6810;63.824;20.288;2023-04-06T13:07:59;103016.06;;;7.04;54.12
13476;BME280;6810;63.824;20.288;2023-04-06T13:10:48;102971.97;;;6.89;54.48
13476;BME280;6810;63.824;20.288;2023-04-06T13:13:36;103004.44;;;7.19;54.60
13476;BME280;6810;63.824;20.288;2023-04-06T13:16:23;103013.13;;;7.37;54.43
13476;BME280;6810;63.824;20.288;2023-04-06T13:19:10;103005.09;;;7.48;54.61
13476;BME280;6810;63.824;20.288;2023-04-06T13:21:57;102924.88;;;7.20;54.41
13476;BME280;6810;63.824;20.288;2023-04-06T13:24:44;102989.81;;;7.71;54.50
13476;BME280;6810;63.824;20.288;2023-04-06T13:27:31;102958.84;;;7.73;54.13
13476;BME280;6810;63.824;20.288;2023-04-06T13:30:19;102970.09;;;7.94;53.92
13476;BME280;6810;63.824;20.288;2023-04-06T13:33:06;102913.72;;;7.71;53.72
13476;BME280;6810;63.824;20.288;2023-04-06T13:35:53;102966.31;;;8.13;53.71
13476;BME280;6810;63.824;20.288;2023-04-06T13:38:43;102935.50;;;8.00;53.96
13476;BME280;6810;63.824;20.288;2023-04-06T13:41:31;102978.53;;;8.31;53.23
13476;BME280;6810;63.824;20.288;2023-04-06T13:44:18;102992.63;;;8.39;53.59